Ruth, Mississippi
Current Conditions -  °F | °C
As of 2:53 PM on Wednesday 26 Nov 2014 (Local Time) from KMCB Reporting Station
Clear Clear  
Wind Chill: 67°   Ceiling: Unl
Heat Index: 67°   Visibility: 10mi
Dew Point: 35°   Wind: 14mph
Humidity: 31%   Direction: 230°SW
Pressure: 30.12"   Gusts: 25mph
Location:  31.38°N, 90.32°W
Report Text: KMCB 262053Z AUTO 23012G22KT 10SM CLR 19/02 A3012 RMK AO2 SLP198 T01940017 56025
Loading
Personal Weather Stations






























Interactive Weather Map New forecast layout! Learn more

10-Day Weather Forecast

Advertisements
Track Severe Weather on mobile